sensor_id;sensor_type;location;lat;lon;timestamp;P1;durP1;ratioP1;P2;durP2;ratioP2
27161;SDS011;54464;50.558;9.704;2024-03-02T00:02:18;17.57;;;12.77;;
27161;SDS011;54464;50.558;9.704;2024-03-02T00:04:44;19.43;;;13.43;;
27161;SDS011;54464;50.558;9.704;2024-03-02T00:07:10;19.40;;;13.43;;
27161;SDS011;54464;50.558;9.704;2024-03-02T00:09:39;19.27;;;12.70;;
27161;SDS011;54464;50.558;9.704;2024-03-02T00:12:04;21.20;;;13.17;;
27161;SDS011;54464;50.558;9.704;2024-03-02T00:14:30;19.63;;;13.87;;
27161;SDS011;54464;50.558;9.704;2024-03-02T00:16:56;19.23;;;13.10;;
27161;SDS011;54464;50.558;9.704;2024-03-02T00:19:22;18.80;;;13.63;;
27161;SDS011;54464;50.558;9.704;2024-03-02T00:21:48;20.00;;;14.40;;
27161;SDS011;54464;50.558;9.704;2024-03-02T00:24:34;19.90;;;14.90;;
27161;SDS011;54464;50.558;9.704;2024-03-02T00:27:00;23.80;;;15.60;;
27161;SDS011;54464;50.558;9.704;2024-03-02T00:29:28;24.97;;;15.03;;
27161;SDS011;54464;50.558;9.704;2024-03-02T00:31:54;22.03;;;15.73;;
27161;SDS011;54464;50.558;9.704;2024-03-02T00:34:20;23.53;;;15.57;;
27161;SDS011;54464;50.558;9.704;2024-03-02T00:36:47;22.27;;;16.33;;
27161;SDS011;54464;50.558;9.704;2024-03-02T00:39:14;23.83;;;15.23;;
27161;SDS011;54464;50.558;9.704;2024-03-02T00:41:42;24.77;;;16.63;;
27161;SDS011;54464;50.558;9.704;2024-03-02T00:44:08;22.27;;;15.13;;
27161;SDS011;54464;50.558;9.704;2024-03-02T00:46:37;24.70;;;16.20;;
27161;SDS011;54464;50.558;9.704;2024-03-02T00:49:05;22.17;;;14.93;;
27161;SDS011;54464;50.558;9.704;2024-03-02T00:51:36;23.07;;;15.10;;
27161;SDS011;54464;50.558;9.704;2024-03-02T00:54:03;21.93;;;15.47;;
27161;SDS011;54464;50.558;9.704;2024-03-02T00:56:30;22.73;;;15.23;;
27161;SDS011;54464;50.558;9.704;2024-03-02T00:58:57;22.20;;;14.70;;
27161;SDS011;54464;50.558;9.704;2024-03-02T01:01:22;22.10;;;15.33;;
27161;SDS011;54464;50.558;9.704;2024-03-02T01:03:48;26.30;;;16.30;;
27161;SDS011;54464;50.558;9.704;2024-03-02T01:06:14;22.50;;;15.00;;
27161;SDS011;54464;50.558;9.704;2024-03-02T01:08:40;22.93;;;15.47;;
27161;SDS011;54464;50.558;9.704;2024-03-02T01:11:06;25.30;;;16.43;;
27161;SDS011;54464;50.558;9.704;2024-03-02T01:13:32;24.13;;;15.87;;
27161;SDS011;54464;50.558;9.704;2024-03-02T01:15:57;24.67;;;15.80;;
27161;SDS011;54464;50.558;9.704;2024-03-02T01:18:24;23.87;;;16.33;;
27161;SDS011;54464;50.558;9.704;2024-03-02T01:20:49;24.43;;;16.47;;
27161;SDS011;54464;50.558;9.704;2024-03-02T01:23:17;24.23;;;16.13;;
27161;SDS011;54464;50.558;9.704;2024-03-02T01:25:47;27.63;;;18.13;;
27161;SDS011;54464;50.558;9.704;2024-03-02T01:28:12;28.00;;;17.43;;
27161;SDS011;54464;50.558;9.704;2024-03-02T01:30:38;24.10;;;16.40;;
27161;SDS011;54464;50.558;9.704;2024-03-02T01:33:04;25.80;;;16.93;;
27161;SDS011;54464;50.558;9.704;2024-03-02T01:35:30;25.60;;;17.37;;
27161;SDS011;54464;50.558;9.704;2024-03-02T01:37:56;26.33;;;16.87;;
27161;SDS011;54464;50.558;9.704;2024-03-02T01:40:22;30.10;;;18.23;;
27161;SDS011;54464;50.558;9.704;2024-03-02T01:42:52;28.23;;;17.80;;
27161;SDS011;54464;50.558;9.704;2024-03-02T01:45:23;23.90;;;16.17;;
27161;SDS011;54464;50.558;9.704;2024-03-02T01:47:49;24.73;;;17.13;;
27161;SDS011;54464;50.558;9.704;2024-03-02T01:50:14;26.30;;;17.43;;
27161;SDS011;54464;50.558;9.704;2024-03-02T01:52:40;26.93;;;16.87;;
27161;SDS011;54464;50.558;9.704;2024-03-02T01:55:07;25.97;;;17.27;;
27161;SDS011;54464;50.558;9.704;2024-03-02T01:57:33;28.00;;;17.50;;
27161;SDS011;54464;50.558;9.704;2024-03-02T01:59:59;26.73;;;17.43;;
27161;SDS011;54464;50.558;9.704;2024-03-02T02:02:25;29.93;;;17.23;;
27161;SDS011;54464;50.558;9.704;2024-03-02T02:04:51;26.57;;;17.07;;
27161;SDS011;54464;50.558;9.704;2024-03-02T02:07:17;27.60;;;17.50;;
27161;SDS011;54464;50.558;9.704;2024-03-02T02:09:43;31.77;;;18.80;;
27161;SDS011;54464;50.558;9.704;2024-03-02T02:12:11;27.13;;;17.27;;
27161;SDS011;54464;50.558;9.704;2024-03-02T02:14:37;26.63;;;17.60;;
27161;SDS011;54464;50.558;9.704;2024-03-02T02:17:04;27.53;;;18.73;;
27161;SDS011;54464;50.558;9.704;2024-03-02T02:19:30;28.60;;;18.77;;
27161;SDS011;54464;50.558;9.704;2024-03-02T02:21:56;29.87;;;19.13;;
27161;SDS011;54464;50.558;9.704;2024-03-02T02:24:21;26.63;;;18.60;;
27161;SDS011;54464;50.558;9.704;2024-03-02T02:26:47;27.40;;;17.97;;
27161;SDS011;54464;50.558;9.704;2024-03-02T02:29:12;26.93;;;17.40;;
27161;SDS011;54464;50.558;9.704;2024-03-02T02:31:38;29.40;;;19.43;;
27161;SDS011;54464;50.558;9.704;2024-03-02T02:34:05;28.33;;;18.40;;
27161;SDS011;54464;50.558;9.704;2024-03-02T02:36:31;29.67;;;19.13;;
27161;SDS011;54464;50.558;9.704;2024-03-02T02:38:57;31.43;;;19.63;;
27161;SDS011;54464;50.558;9.704;2024-03-02T02:41:24;27.17;;;18.00;;
27161;SDS011;54464;50.558;9.704;2024-03-02T02:43:50;26.83;;;17.83;;
27161;SDS011;54464;50.558;9.704;2024-03-02T02:46:15;28.27;;;18.70;;
27161;SDS011;54464;50.558;9.704;2024-03-02T02:48:41;30.77;;;19.17;;
27161;SDS011;54464;50.558;9.704;2024-03-02T02:51:06;27.87;;;17.90;;
27161;SDS011;54464;50.558;9.704;2024-03-02T02:53:32;27.83;;;18.23;;
27161;SDS011;54464;50.558;9.704;2024-03-02T02:55:58;25.63;;;17.50;;
27161;SDS011;54464;50.558;9.704;2024-03-02T02:58:23;27.63;;;18.67;;
27161;SDS011;54464;50.558;9.704;2024-03-02T03:00:49;29.27;;;19.87;;
27161;SDS011;54464;50.558;9.704;2024-03-02T03:03:14;30.50;;;18.93;;
27161;SDS011;54464;50.558;9.704;2024-03-02T03:05:40;28.77;;;18.63;;
27161;SDS011;54464;50.558;9.704;2024-03-02T03:08:05;27.50;;;18.13;;
27161;SDS011;54464;50.558;9.704;2024-03-02T03:10:31;26.50;;;16.80;;
27161;SDS011;54464;50.558;9.704;2024-03-02T03:12:58;27.37;;;17.37;;
27161;SDS011;54464;50.558;9.704;2024-03-02T03:15:23;27.43;;;18.10;;
27161;SDS011;54464;50.558;9.704;2024-03-02T03:17:49;27.40;;;17.83;;
27161;SDS011;54464;50.558;9.704;2024-03-02T03:20:15;24.70;;;17.27;;
27161;SDS011;54464;50.558;9.704;2024-03-02T03:22:41;25.57;;;17.17;;
27161;SDS011;54464;50.558;9.704;2024-03-02T03:25:09;27.93;;;17.70;;
27161;SDS011;54464;50.558;9.704;2024-03-02T03:27:38;24.80;;;16.83;;
27161;SDS011;54464;50.558;9.704;2024-03-02T03:30:03;24.07;;;16.80;;
27161;SDS011;54464;50.558;9.704;2024-03-02T03:32:31;26.40;;;17.57;;
27161;SDS011;54464;50.558;9.704;2024-03-02T03:34:56;28.03;;;16.43;;
27161;SDS011;54464;50.558;9.704;2024-03-02T03:37:22;27.47;;;16.97;;
27161;SDS011;54464;50.558;9.704;2024-03-02T03:39:47;25.73;;;17.17;;
27161;SDS011;54464;50.558;9.704;2024-03-02T03:42:13;26.50;;;17.33;;
27161;SDS011;54464;50.558;9.704;2024-03-02T03:44:38;25.47;;;17.13;;
27161;SDS011;54464;50.558;9.704;2024-03-02T03:47:05;26.23;;;16.77;;
27161;SDS011;54464;50.558;9.704;2024-03-02T03:49:31;24.63;;;16.77;;
27161;SDS011;54464;50.558;9.704;2024-03-02T03:51:59;24.37;;;16.33;;
27161;SDS011;54464;50.558;9.704;2024-03-02T03:54:25;24.30;;;16.80;;
27161;SDS011;54464;50.558;9.704;2024-03-02T03:56:51;24.83;;;16.63;;
27161;SDS011;54464;50.558;9.704;2024-03-02T03:59:16;25.60;;;16.80;;
27161;SDS011;54464;50.558;9.704;2024-03-02T04:01:42;26.63;;;17.23;;
27161;SDS011;54464;50.558;9.704;2024-03-02T04:04:07;23.57;;;16.30;;
27161;SDS011;54464;50.558;9.704;2024-03-02T04:06:33;24.90;;;16.53;;
27161;SDS011;54464;50.558;9.704;2024-03-02T04:08:58;24.40;;;15.77;;
27161;SDS011;54464;50.558;9.704;2024-03-02T04:11:24;23.10;;;16.10;;
27161;SDS011;54464;50.558;9.704;2024-03-02T04:13:49;22.90;;;16.27;;
27161;SDS011;54464;50.558;9.704;2024-03-02T04:16:15;25.30;;;16.47;;
27161;SDS011;54464;50.558;9.704;2024-03-02T04:18:40;26.60;;;16.70;;
27161;SDS011;54464;50.558;9.704;2024-03-02T04:21:06;25.37;;;16.43;;
27161;SDS011;54464;50.558;9.704;2024-03-02T04:23:32;24.90;;;16.40;;
27161;SDS011;54464;50.558;9.704;2024-03-02T04:25:57;23.90;;;15.77;;
27161;SDS011;54464;50.558;9.704;2024-03-02T04:28:23;21.93;;;14.63;;
27161;SDS011;54464;50.558;9.704;2024-03-02T04:30:48;21.53;;;14.90;;
27161;SDS011;54464;50.558;9.704;2024-03-02T04:33:14;21.93;;;14.30;;
27161;SDS011;54464;50.558;9.704;2024-03-02T04:35:39;21.53;;;14.17;;
27161;SDS011;54464;50.558;9.704;2024-03-02T04:38:05;20.13;;;13.87;;
27161;SDS011;54464;50.558;9.704;2024-03-02T04:40:30;23.10;;;14.83;;
27161;SDS011;54464;50.558;9.704;2024-03-02T04:42:57;21.20;;;14.67;;
27161;SDS011;54464;50.558;9.704;2024-03-02T04:45:24;20.27;;;13.87;;
27161;SDS011;54464;50.558;9.704;2024-03-02T04:47:49;20.33;;;14.47;;
27161;SDS011;54464;50.558;9.704;2024-03-02T04:50:15;19.87;;;13.90;;
27161;SDS011;54464;50.558;9.704;2024-03-02T04:52:40;20.17;;;13.87;;
27161;SDS011;54464;50.558;9.704;2024-03-02T04:55:06;20.40;;;13.60;;
27161;SDS011;54464;50.558;9.704;2024-03-02T04:57:38;20.63;;;14.90;;
27161;SDS011;54464;50.558;9.704;2024-03-02T05:00:04;21.57;;;14.87;;
27161;SDS011;54464;50.558;9.704;2024-03-02T05:02:32;22.57;;;15.47;;
27161;SDS011;54464;50.558;9.704;2024-03-02T05:04:57;25.00;;;17.33;;
27161;SDS011;54464;50.558;9.704;2024-03-02T05:07:23;24.27;;;15.70;;
27161;SDS011;54464;50.558;9.704;2024-03-02T05:09:48;25.43;;;16.80;;
27161;SDS011;54464;50.558;9.704;2024-03-02T05:12:14;22.30;;;15.50;;
27161;SDS011;54464;50.558;9.704;2024-03-02T05:14:58;23.60;;;14.67;;
27161;SDS011;54464;50.558;9.704;2024-03-02T05:17:24;21.73;;;15.07;;
27161;SDS011;54464;50.558;9.704;2024-03-02T05:19:49;23.67;;;15.20;;
27161;SDS011;54464;50.558;9.704;2024-03-02T05:22:15;20.10;;;14.53;;
27161;SDS011;54464;50.558;9.704;2024-03-02T05:24:41;22.63;;;14.67;;
27161;SDS011;54464;50.558;9.704;2024-03-02T05:27:07;21.83;;;14.60;;
27161;SDS011;54464;50.558;9.704;2024-03-02T05:29:32;22.07;;;14.27;;
27161;SDS011;54464;50.558;9.704;2024-03-02T05:31:58;22.83;;;14.30;;
27161;SDS011;54464;50.558;9.704;2024-03-02T05:34:23;24.40;;;14.47;;
27161;SDS011;54464;50.558;9.704;2024-03-02T05:36:49;20.47;;;13.97;;
27161;SDS011;54464;50.558;9.704;2024-03-02T05:39:14;21.43;;;14.23;;
27161;SDS011;54464;50.558;9.704;2024-03-02T05:41:40;21.80;;;14.17;;
27161;SDS011;54464;50.558;9.704;2024-03-02T05:44:06;18.87;;;14.00;;
27161;SDS011;54464;50.558;9.704;2024-03-02T05:46:31;20.87;;;13.83;;
27161;SDS011;54464;50.558;9.704;2024-03-02T05:48:58;21.77;;;14.73;;
27161;SDS011;54464;50.558;9.704;2024-03-02T05:51:26;20.57;;;13.37;;
27161;SDS011;54464;50.558;9.704;2024-03-02T05:53:52;19.93;;;13.47;;
27161;SDS011;54464;50.558;9.704;2024-03-02T05:56:17;20.00;;;13.23;;
27161;SDS011;54464;50.558;9.704;2024-03-02T05:58:43;19.50;;;13.33;;
27161;SDS011;54464;50.558;9.704;2024-03-02T06:01:09;19.67;;;13.43;;
27161;SDS011;54464;50.558;9.704;2024-03-02T06:03:34;21.03;;;13.23;;
27161;SDS011;54464;50.558;9.704;2024-03-02T06:06:00;20.40;;;13.97;;
27161;SDS011;54464;50.558;9.704;2024-03-02T06:08:25;20.47;;;13.40;;
27161;SDS011;54464;50.558;9.704;2024-03-02T06:10:51;19.93;;;14.00;;
27161;SDS011;54464;50.558;9.704;2024-03-02T06:13:16;22.43;;;14.10;;
27161;SDS011;54464;50.558;9.704;2024-03-02T06:15:42;20.20;;;14.00;;
27161;SDS011;54464;50.558;9.704;2024-03-02T06:18:08;20.37;;;13.23;;
27161;SDS011;54464;50.558;9.704;2024-03-02T06:20:34;20.00;;;13.50;;
27161;SDS011;54464;50.558;9.704;2024-03-02T06:22:59;18.23;;;12.80;;
27161;SDS011;54464;50.558;9.704;2024-03-02T06:25:25;20.47;;;13.30;;
27161;SDS011;54464;50.558;9.704;2024-03-02T06:27:51;18.70;;;12.77;;
27161;SDS011;54464;50.558;9.704;2024-03-02T06:30:16;19.80;;;12.67;;
27161;SDS011;54464;50.558;9.704;2024-03-02T06:32:42;18.73;;;13.07;;
27161;SDS011;54464;50.558;9.704;2024-03-02T06:35:07;17.57;;;11.97;;
27161;SDS011;54464;50.558;9.704;2024-03-02T06:37:35;18.63;;;12.27;;
27161;SDS011;54464;50.558;9.704;2024-03-02T06:40:01;17.00;;;11.67;;
27161;SDS011;54464;50.558;9.704;2024-03-02T06:42:27;18.83;;;12.40;;
27161;SDS011;54464;50.558;9.704;2024-03-02T06:44:58;16.03;;;11.40;;
27161;SDS011;54464;50.558;9.704;2024-03-02T06:47:23;17.20;;;11.50;;
27161;SDS011;54464;50.558;9.704;2024-03-02T06:49:49;16.50;;;11.10;;
27161;SDS011;54464;50.558;9.704;2024-03-02T06:52:15;15.77;;;10.87;;
27161;SDS011;54464;50.558;9.704;2024-03-02T06:54:40;14.17;;;10.60;;
27161;SDS011;54464;50.558;9.704;2024-03-02T06:57:06;15.23;;;10.73;;
27161;SDS011;54464;50.558;9.704;2024-03-02T06:59:31;16.63;;;11.40;;
27161;SDS011;54464;50.558;9.704;2024-03-02T07:01:58;15.03;;;10.83;;
27161;SDS011;54464;50.558;9.704;2024-03-02T07:04:24;15.60;;;11.17;;
27161;SDS011;54464;50.558;9.704;2024-03-02T07:06:50;13.63;;;10.13;;
27161;SDS011;54464;50.558;9.704;2024-03-02T07:09:16;12.67;;;9.70;;
27161;SDS011;54464;50.558;9.704;2024-03-02T07:11:42;14.47;;;10.67;;
27161;SDS011;54464;50.558;9.704;2024-03-02T07:14:08;16.27;;;10.47;;
27161;SDS011;54464;50.558;9.704;2024-03-02T07:16:33;16.27;;;10.93;;
27161;SDS011;54464;50.558;9.704;2024-03-02T07:18:59;17.13;;;11.40;;
27161;SDS011;54464;50.558;9.704;2024-03-02T07:21:26;14.93;;;10.63;;
27161;SDS011;54464;50.558;9.704;2024-03-02T07:23:52;18.03;;;11.57;;
27161;SDS011;54464;50.558;9.704;2024-03-02T07:26:18;16.57;;;11.93;;
27161;SDS011;54464;50.558;9.704;2024-03-02T07:28:45;17.30;;;12.00;;
27161;SDS011;54464;50.558;9.704;2024-03-02T07:31:12;16.47;;;11.57;;
27161;SDS011;54464;50.558;9.704;2024-03-02T07:33:38;18.10;;;11.90;;
27161;SDS011;54464;50.558;9.704;2024-03-02T07:36:03;16.30;;;12.10;;
27161;SDS011;54464;50.558;9.704;2024-03-02T07:38:29;18.10;;;12.63;;
27161;SDS011;54464;50.558;9.704;2024-03-02T07:40:56;17.33;;;12.10;;
27161;SDS011;54464;50.558;9.704;2024-03-02T07:43:22;18.23;;;12.60;;
27161;SDS011;54464;50.558;9.704;2024-03-02T07:45:48;17.33;;;12.13;;
27161;SDS011;54464;50.558;9.704;2024-03-02T07:48:14;17.73;;;12.57;;
27161;SDS011;54464;50.558;9.704;2024-03-02T07:50:40;20.20;;;13.23;;
27161;SDS011;54464;50.558;9.704;2024-03-02T07:53:06;20.97;;;14.27;;
27161;SDS011;54464;50.558;9.704;2024-03-02T07:55:35;22.93;;;15.17;;
27161;SDS011;54464;50.558;9.704;2024-03-02T07:58:00;19.00;;;12.77;;
27161;SDS011;54464;50.558;9.704;2024-03-02T08:00:26;19.03;;;13.30;;
27161;SDS011;54464;50.558;9.704;2024-03-02T08:02:52;19.63;;;13.60;;
27161;SDS011;54464;50.558;9.704;2024-03-02T08:05:18;19.50;;;13.50;;
27161;SDS011;54464;50.558;9.704;2024-03-02T08:07:44;18.60;;;13.00;;
27161;SDS011;54464;50.558;9.704;2024-03-02T08:10:10;20.07;;;13.10;;
27161;SDS011;54464;50.558;9.704;2024-03-02T08:12:36;19.50;;;13.63;;
27161;SDS011;54464;50.558;9.704;2024-03-02T08:15:02;17.60;;;13.07;;
27161;SDS011;54464;50.558;9.704;2024-03-02T08:17:29;19.73;;;13.57;;
27161;SDS011;54464;50.558;9.704;2024-03-02T08:19:54;19.67;;;13.50;;
27161;SDS011;54464;50.558;9.704;2024-03-02T08:22:20;21.00;;;12.90;;
27161;SDS011;54464;50.558;9.704;2024-03-02T08:24:46;19.10;;;12.67;;
27161;SDS011;54464;50.558;9.704;2024-03-02T08:27:12;17.40;;;13.33;;
27161;SDS011;54464;50.558;9.704;2024-03-02T08:29:37;23.43;;;15.27;;
27161;SDS011;54464;50.558;9.704;2024-03-02T08:32:03;20.37;;;13.77;;
27161;SDS011;54464;50.558;9.704;2024-03-02T08:34:29;21.07;;;13.90;;
27161;SDS011;54464;50.558;9.704;2024-03-02T08:36:55;21.00;;;13.90;;
27161;SDS011;54464;50.558;9.704;2024-03-02T08:39:21;19.40;;;13.73;;
27161;SDS011;54464;50.558;9.704;2024-03-02T08:41:49;17.10;;;12.30;;
27161;SDS011;54464;50.558;9.704;2024-03-02T08:44:15;17.77;;;12.33;;
27161;SDS011;54464;50.558;9.704;2024-03-02T08:46:41;17.77;;;12.73;;
27161;SDS011;54464;50.558;9.704;2024-03-02T08:49:07;17.23;;;11.93;;
27161;SDS011;54464;50.558;9.704;2024-03-02T08:51:33;16.07;;;10.63;;
27161;SDS011;54464;50.558;9.704;2024-03-02T08:53:58;18.67;;;11.60;;
27161;SDS011;54464;50.558;9.704;2024-03-02T08:56:24;18.93;;;12.30;;
27161;SDS011;54464;50.558;9.704;2024-03-02T08:58:50;18.20;;;11.33;;
27161;SDS011;54464;50.558;9.704;2024-03-02T09:01:16;17.43;;;12.43;;
27161;SDS011;54464;50.558;9.704;2024-03-02T09:03:43;15.03;;;11.03;;
27161;SDS011;54464;50.558;9.704;2024-03-02T09:06:11;16.20;;;11.63;;
27161;SDS011;54464;50.558;9.704;2024-03-02T09:08:38;16.50;;;11.23;;
27161;SDS011;54464;50.558;9.704;2024-03-02T09:11:04;15.63;;;10.90;;
27161;SDS011;54464;50.558;9.704;2024-03-02T09:13:31;16.07;;;10.13;;
27161;SDS011;54464;50.558;9.704;2024-03-02T09:15:57;14.47;;;10.17;;
27161;SDS011;54464;50.558;9.704;2024-03-02T09:18:23;12.67;;;10.10;;
27161;SDS011;54464;50.558;9.704;2024-03-02T09:20:49;15.10;;;10.53;;
27161;SDS011;54464;50.558;9.704;2024-03-02T09:23:14;15.03;;;10.20;;
27161;SDS011;54464;50.558;9.704;2024-03-02T09:25:40;15.40;;;11.10;;
27161;SDS011;54464;50.558;9.704;2024-03-02T09:28:05;13.63;;;10.17;;
27161;SDS011;54464;50.558;9.704;2024-03-02T09:30:32;13.70;;;10.00;;
27161;SDS011;54464;50.558;9.704;2024-03-02T09:32:57;13.17;;;9.63;;
27161;SDS011;54464;50.558;9.704;2024-03-02T09:35:23;15.20;;;10.30;;
27161;SDS011;54464;50.558;9.704;2024-03-02T09:37:49;12.20;;;9.77;;
27161;SDS011;54464;50.558;9.704;2024-03-02T09:40:15;12.67;;;9.17;;
27161;SDS011;54464;50.558;9.704;2024-03-02T09:42:41;15.43;;;10.57;;
27161;SDS011;54464;50.558;9.704;2024-03-02T09:45:08;14.90;;;10.70;;
27161;SDS011;54464;50.558;9.704;2024-03-02T09:47:34;12.97;;;9.90;;
27161;SDS011;54464;50.558;9.704;2024-03-02T09:50:00;13.77;;;9.47;;
27161;SDS011;54464;50.558;9.704;2024-03-02T09:52:25;14.73;;;10.23;;
27161;SDS011;54464;50.558;9.704;2024-03-02T09:54:51;11.97;;;9.83;;
27161;SDS011;54464;50.558;9.704;2024-03-02T09:57:17;15.13;;;9.93;;
27161;SDS011;54464;50.558;9.704;2024-03-02T09:59:43;15.20;;;9.83;;
27161;SDS011;54464;50.558;9.704;2024-03-02T10:02:10;13.63;;;9.07;;
27161;SDS011;54464;50.558;9.704;2024-03-02T10:04:36;12.43;;;9.27;;
27161;SDS011;54464;50.558;9.704;2024-03-02T10:07:09;12.57;;;9.17;;
27161;SDS011;54464;50.558;9.704;2024-03-02T10:09:36;12.90;;;9.13;;
27161;SDS011;54464;50.558;9.704;2024-03-02T10:12:05;12.70;;;9.10;;
27161;SDS011;54464;50.558;9.704;2024-03-02T10:14:32;13.93;;;9.30;;
27161;SDS011;54464;50.558;9.704;2024-03-02T10:19:30;12.57;;;8.83;;
27161;SDS011;54464;50.558;9.704;2024-03-02T10:21:58;12.53;;;9.20;;
27161;SDS011;54464;50.558;9.704;2024-03-02T10:24:24;12.37;;;8.47;;
27161;SDS011;54464;50.558;9.704;2024-03-02T10:26:51;9.77;;;7.67;;
27161;SDS011;54464;50.558;9.704;2024-03-02T10:29:17;10.57;;;7.47;;
27161;SDS011;54464;50.558;9.704;2024-03-02T10:31:43;11.20;;;7.50;;
27161;SDS011;54464;50.558;9.704;2024-03-02T10:34:10;10.83;;;7.53;;
27161;SDS011;54464;50.558;9.704;2024-03-02T10:36:37;8.87;;;6.90;;
27161;SDS011;54464;50.558;9.704;2024-03-02T10:39:07;9.97;;;7.50;;
27161;SDS011;54464;50.558;9.704;2024-03-02T10:41:37;10.40;;;6.93;;
27161;SDS011;54464;50.558;9.704;2024-03-02T10:44:04;9.57;;;6.83;;
27161;SDS011;54464;50.558;9.704;2024-03-02T10:46:33;8.63;;;6.63;;
27161;SDS011;54464;50.558;9.704;2024-03-02T10:49:00;7.93;;;6.27;;
27161;SDS011;54464;50.558;9.704;2024-03-02T10:51:28;8.50;;;5.90;;
27161;SDS011;54464;50.558;9.704;2024-03-02T10:53:58;6.83;;;5.50;;
27161;SDS011;54464;50.558;9.704;2024-03-02T10:56:38;7.83;;;5.60;;
27161;SDS011;54464;50.558;9.704;2024-03-02T11:01:58;7.20;;;5.27;;
27161;SDS011;54464;50.558;9.704;2024-03-02T11:04:26;5.70;;;4.83;;
27161;SDS011;54464;50.558;9.704;2024-03-02T11:06:54;6.33;;;5.03;;
27161;SDS011;54464;50.558;9.704;2024-03-02T11:09:26;6.17;;;4.63;;
27161;SDS011;54464;50.558;9.704;2024-03-02T11:11:57;5.83;;;4.97;;
27161;SDS011;54464;50.558;9.704;2024-03-02T11:14:28;6.13;;;5.13;;
27161;SDS011;54464;50.558;9.704;2024-03-02T11:16:57;6.00;;;4.97;;
27161;SDS011;54464;50.558;9.704;2024-03-02T11:19:24;5.90;;;4.50;;
27161;SDS011;54464;50.558;9.704;2024-03-02T11:21:52;6.60;;;5.20;;
27161;SDS011;54464;50.558;9.704;2024-03-02T11:26:47;6.00;;;4.33;;
27161;SDS011;54464;50.558;9.704;2024-03-02T11:32:04;4.50;;;4.10;;
27161;SDS011;54464;50.558;9.704;2024-03-02T11:34:31;4.03;;;3.43;;
27161;SDS011;54464;50.558;9.704;2024-03-02T11:36:58;3.37;;;2.77;;
27161;SDS011;54464;50.558;9.704;2024-03-02T11:39:26;3.70;;;2.83;;
27161;SDS011;54464;50.558;9.704;2024-03-02T11:41:52;3.63;;;2.53;;
27161;SDS011;54464;50.558;9.704;2024-03-02T11:44:18;2.90;;;2.40;;
27161;SDS011;54464;50.558;9.704;2024-03-02T11:46:59;2.90;;;2.60;;
27161;SDS011;54464;50.558;9.704;2024-03-02T11:52:11;3.87;;;2.70;;
27161;SDS011;54464;50.558;9.704;2024-03-02T11:54:38;3.87;;;3.20;;
27161;SDS011;54464;50.558;9.704;2024-03-02T11:57:08;3.50;;;2.73;;
27161;SDS011;54464;50.558;9.704;2024-03-02T11:59:34;4.00;;;2.73;;
27161;SDS011;54464;50.558;9.704;2024-03-02T12:02:00;3.20;;;2.63;;
27161;SDS011;54464;50.558;9.704;2024-03-02T12:04:27;3.37;;;2.70;;
27161;SDS011;54464;50.558;9.704;2024-03-02T12:06:55;4.10;;;2.90;;
27161;SDS011;54464;50.558;9.704;2024-03-02T12:09:21;3.37;;;2.13;;
27161;SDS011;54464;50.558;9.704;2024-03-02T12:11:47;2.53;;;2.10;;
27161;SDS011;54464;50.558;9.704;2024-03-02T12:14:13;2.97;;;2.50;;
27161;SDS011;54464;50.558;9.704;2024-03-02T12:16:38;2.07;;;1.60;;
27161;SDS011;54464;50.558;9.704;2024-03-02T12:19:08;2.70;;;1.50;;
27161;SDS011;54464;50.558;9.704;2024-03-02T12:21:33;1.73;;;1.63;;
27161;SDS011;54464;50.558;9.704;2024-03-02T12:23:59;2.10;;;1.87;;
27161;SDS011;54464;50.558;9.704;2024-03-02T12:26:25;2.53;;;1.83;;
27161;SDS011;54464;50.558;9.704;2024-03-02T12:28:51;4.80;;;2.00;;
27161;SDS011;54464;50.558;9.704;2024-03-02T12:31:17;2.23;;;1.70;;
27161;SDS011;54464;50.558;9.704;2024-03-02T12:33:42;2.50;;;1.40;;
27161;SDS011;54464;50.558;9.704;2024-03-02T12:36:11;2.23;;;1.40;;
27161;SDS011;54464;50.558;9.704;2024-03-02T12:38:42;1.30;;;1.20;;
27161;SDS011;54464;50.558;9.704;2024-03-02T12:41:08;1.53;;;1.30;;
27161;SDS011;54464;50.558;9.704;2024-03-02T12:43:34;2.73;;;1.60;;
27161;SDS011;54464;50.558;9.704;2024-03-02T12:46:00;1.97;;;1.47;;
27161;SDS011;54464;50.558;9.704;2024-03-02T12:48:25;1.37;;;1.20;;
27161;SDS011;54464;50.558;9.704;2024-03-02T12:50:51;1.73;;;1.43;;
27161;SDS011;54464;50.558;9.704;2024-03-02T12:53:17;1.47;;;1.33;;
27161;SDS011;54464;50.558;9.704;2024-03-02T12:55:43;1.93;;;1.47;;
27161;SDS011;54464;50.558;9.704;2024-03-02T12:58:16;1.73;;;1.33;;
27161;SDS011;54464;50.558;9.704;2024-03-02T13:00:43;1.50;;;1.37;;
27161;SDS011;54464;50.558;9.704;2024-03-02T13:03:08;2.40;;;1.30;;
27161;SDS011;54464;50.558;9.704;2024-03-02T13:05:34;1.60;;;1.00;;
27161;SDS011;54464;50.558;9.704;2024-03-02T13:08:00;1.50;;;1.20;;
27161;SDS011;54464;50.558;9.704;2024-03-02T13:10:28;1.60;;;1.30;;
27161;SDS011;54464;50.558;9.704;2024-03-02T13:12:54;1.83;;;1.43;;
27161;SDS011;54464;50.558;9.704;2024-03-02T13:15:20;1.60;;;1.40;;
27161;SDS011;54464;50.558;9.704;2024-03-02T13:17:46;2.43;;;1.30;;
27161;SDS011;54464;50.558;9.704;2024-03-02T13:20:12;1.30;;;0.93;;
27161;SDS011;54464;50.558;9.704;2024-03-02T13:22:39;1.70;;;0.97;;
27161;SDS011;54464;50.558;9.704;2024-03-02T13:25:04;1.73;;;1.07;;
27161;SDS011;54464;50.558;9.704;2024-03-02T13:27:31;2.57;;;1.10;;
27161;SDS011;54464;50.558;9.704;2024-03-02T13:29:59;2.70;;;1.00;;
27161;SDS011;54464;50.558;9.704;2024-03-02T13:32:26;1.77;;;1.00;;
27161;SDS011;54464;50.558;9.704;2024-03-02T13:34:51;1.43;;;1.13;;
27161;SDS011;54464;50.558;9.704;2024-03-02T13:37:20;1.47;;;1.00;;
27161;SDS011;54464;50.558;9.704;2024-03-02T13:39:46;1.13;;;1.00;;
27161;SDS011;54464;50.558;9.704;2024-03-02T13:42:12;1.33;;;0.90;;
27161;SDS011;54464;50.558;9.704;2024-03-02T13:44:40;2.83;;;2.33;;
27161;SDS011;54464;50.558;9.704;2024-03-02T13:47:06;3.80;;;3.20;;
27161;SDS011;54464;50.558;9.704;2024-03-02T13:49:32;3.07;;;2.57;;
27161;SDS011;54464;50.558;9.704;2024-03-02T13:52:08;2.60;;;1.20;;
27161;SDS011;54464;50.558;9.704;2024-03-02T13:54:41;1.40;;;1.10;;
27161;SDS011;54464;50.558;9.704;2024-03-02T13:57:12;5.37;;;1.73;;
27161;SDS011;54464;50.558;9.704;2024-03-02T13:59:38;1.10;;;1.00;;
27161;SDS011;54464;50.558;9.704;2024-03-02T14:02:07;4.00;;;3.30;;
27161;SDS011;54464;50.558;9.704;2024-03-02T14:04:33;4.13;;;3.23;;
27161;SDS011;54464;50.558;9.704;2024-03-02T14:07:00;5.80;;;3.80;;
27161;SDS011;54464;50.558;9.704;2024-03-02T14:09:26;5.13;;;3.67;;
27161;SDS011;54464;50.558;9.704;2024-03-02T14:11:53;4.90;;;3.80;;
27161;SDS011;54464;50.558;9.704;2024-03-02T14:14:19;4.73;;;3.83;;
27161;SDS011;54464;50.558;9.704;2024-03-02T14:16:45;4.53;;;3.87;;
27161;SDS011;54464;50.558;9.704;2024-03-02T14:19:11;5.07;;;3.80;;
27161;SDS011;54464;50.558;9.704;2024-03-02T14:21:37;4.70;;;3.57;;
27161;SDS011;54464;50.558;9.704;2024-03-02T14:24:03;4.43;;;3.50;;
27161;SDS011;54464;50.558;9.704;2024-03-02T14:26:29;5.70;;;4.03;;
27161;SDS011;54464;50.558;9.704;2024-03-02T14:28:55;4.93;;;4.20;;
27161;SDS011;54464;50.558;9.704;2024-03-02T14:31:20;5.27;;;4.67;;
27161;SDS011;54464;50.558;9.704;2024-03-02T14:33:46;6.07;;;5.03;;
27161;SDS011;54464;50.558;9.704;2024-03-02T14:36:12;5.87;;;4.53;;
27161;SDS011;54464;50.558;9.704;2024-03-02T14:38:38;4.40;;;3.73;;